createdAt,value
2023-03-28T00:01:02.261Z,97.86
2023-03-28T00:03:29.846Z,98.25
2023-03-28T00:06:05.224Z,98.01
2023-03-28T00:08:32.099Z,99.16
2023-03-28T00:11:18.981Z,99.84
2023-03-28T00:13:47.088Z,100.00
2023-03-28T00:16:14.488Z,99.98
2023-03-28T00:18:42.743Z,98.71
2023-03-28T00:21:25.009Z,98.13
2023-03-28T00:24:02.073Z,97.00
2023-03-28T00:26:33.968Z,96.01
2023-03-28T00:29:02.064Z,95.52
2023-03-28T00:31:30.193Z,96.02
2023-03-28T00:33:57.666Z,96.15
2023-03-28T00:36:29.878Z,96.08
2023-03-28T00:38:58.009Z,95.81
2023-03-28T00:41:26.837Z,96.23
2023-03-28T00:43:55.708Z,96.51
2023-03-28T00:46:37.606Z,96.24
2023-03-28T00:49:13.958Z,95.64
2023-03-28T00:51:44.960Z,93.94
2023-03-28T00:54:15.599Z,93.60
2023-03-28T00:56:45.059Z,93.87
2023-03-28T00:59:15.491Z,93.92
2023-03-28T01:01:42.228Z,94.24
2023-03-28T01:04:10.323Z,94.36
2023-03-28T01:06:40.800Z,93.77
2023-03-28T01:09:10.151Z,93.59
2023-03-28T01:11:38.740Z,93.87
2023-03-28T01:14:07.358Z,93.24
2023-03-28T01:16:34.321Z,93.70
2023-03-28T01:19:03.133Z,93.45
2023-03-28T01:21:48.842Z,93.76
2023-03-28T01:24:29.119Z,94.47
2023-03-28T01:26:59.036Z,95.93
2023-03-28T01:29:47.578Z,96.46
2023-03-28T01:32:45.139Z,98.01
2023-03-28T01:35:42.567Z,99.59
2023-03-28T01:38:37.183Z,99.64
2023-03-28T01:41:04.268Z,99.66
2023-03-28T01:43:49.197Z,99.97
2023-03-28T01:46:32.830Z,100.00
2023-03-28T01:49:30.330Z,100.00
2023-03-28T01:52:16.024Z,100.00
2023-03-28T01:54:58.418Z,100.00
2023-03-28T01:58:02.181Z,98.16
2023-03-28T02:00:46.512Z,98.36
2023-03-28T02:03:31.275Z,96.75
2023-03-28T02:06:04.351Z,96.79
2023-03-28T02:08:33.209Z,96.21
2023-03-28T02:11:22.077Z,92.97
2023-03-28T02:14:00.911Z,93.11
2023-03-28T02:16:54.444Z,91.61
2023-03-28T02:19:55.353Z,92.87
2023-03-28T02:22:52.053Z,92.66
2023-03-28T02:25:42.653Z,92.79
2023-03-28T02:28:29.840Z,93.63
2023-03-28T02:31:09.519Z,95.04
2023-03-28T02:33:45.379Z,95.93
2023-03-28T02:36:35.435Z,97.57
2023-03-28T02:39:33.580Z,98.92
2023-03-28T02:42:25.871Z,99.29
2023-03-28T02:45:14.394Z,99.83
2023-03-28T02:48:22.609Z,98.49
2023-03-28T02:51:22.744Z,99.04
2023-03-28T02:54:18.768Z,99.27
2023-03-28T02:57:07.134Z,99.79
2023-03-28T02:59:46.738Z,100.00
2023-03-28T03:02:18.148Z,99.42
2023-03-28T03:04:45.379Z,100.00
2023-03-28T03:07:12.699Z,99.45
2023-03-28T03:09:40.771Z,99.94
2023-03-28T03:12:07.783Z,99.39
2023-03-28T03:14:34.787Z,99.87
2023-03-28T03:17:21.575Z,100.00
2023-03-28T03:19:48.522Z,100.00
2023-03-28T03:22:20.990Z,100.00
2023-03-28T03:24:51.491Z,100.00
2023-03-28T03:27:19.234Z,99.60
2023-03-28T03:29:46.575Z,97.41
2023-03-28T03:32:16.039Z,98.38
2023-03-28T03:34:48.009Z,98.39
2023-03-28T03:37:15.150Z,97.54
2023-03-28T03:39:42.031Z,96.58
2023-03-28T03:42:11.806Z,96.67
2023-03-28T03:44:41.421Z,97.42
2023-03-28T03:47:09.077Z,97.89
2023-03-28T03:49:35.818Z,97.54
2023-03-28T03:52:04.612Z,97.00
2023-03-28T03:54:31.448Z,97.16
2023-03-28T03:56:58.829Z,96.84
2023-03-28T03:59:27.892Z,96.94
2023-03-28T04:01:58.649Z,97.59
2023-03-28T04:04:26.185Z,98.13
2023-03-28T04:07:16.292Z,97.94
2023-03-28T04:09:45.392Z,97.54
2023-03-28T04:12:15.897Z,98.25
2023-03-28T04:14:46.346Z,98.34
2023-03-28T04:17:34.995Z,99.37
2023-03-28T04:20:17.538Z,99.25
2023-03-28T04:23:13.772Z,99.85
2023-03-28T04:25:41.947Z,98.99
2023-03-28T04:28:20.647Z,98.50
2023-03-28T04:30:58.440Z,98.49
2023-03-28T04:33:30.702Z,97.95
2023-03-28T04:36:02.680Z,98.38
2023-03-28T04:38:31.976Z,97.11
2023-03-28T04:41:16.483Z,96.74
2023-03-28T04:44:03.601Z,96.91
2023-03-28T04:46:36.318Z,96.34
2023-03-28T04:49:09.733Z,96.95
2023-03-28T04:51:36.507Z,95.95
2023-03-28T04:54:03.267Z,96.10
2023-03-28T04:57:02.680Z,95.27
2023-03-28T04:59:44.257Z,94.92
2023-03-28T05:02:17.530Z,94.96
2023-03-28T05:04:52.509Z,93.66
2023-03-28T05:07:19.604Z,93.39
2023-03-28T05:09:46.652Z,92.29
2023-03-28T05:12:13.388Z,91.46
2023-03-28T05:14:57.995Z,91.68
2023-03-28T05:17:25.020Z,91.79
2023-03-28T05:20:01.002Z,90.65
2023-03-28T05:22:34.971Z,89.53
2023-03-28T05:25:03.600Z,89.61
2023-03-28T05:27:30.793Z,89.03
2023-03-28T05:29:57.634Z,88.64
2023-03-28T05:32:26.304Z,87.83
2023-03-28T05:34:54.518Z,87.07
2023-03-28T05:37:28.547Z,87.83
2023-03-28T05:39:55.870Z,86.66
2023-03-28T05:42:22.885Z,86.28
2023-03-28T05:44:49.903Z,85.91
2023-03-28T05:47:39.523Z,84.15
2023-03-28T05:50:07.465Z,83.56
2023-03-28T05:52:34.543Z,82.47
2023-03-28T05:55:06.617Z,81.82
2023-03-28T05:57:33.438Z,81.28
2023-03-28T06:00:03.804Z,79.48
2023-03-28T06:02:34.083Z,79.34
2023-03-28T06:05:03.900Z,78.19
2023-03-28T06:07:41.358Z,77.22
2023-03-28T06:10:11.609Z,76.84
2023-03-28T06:12:39.239Z,76.91
2023-03-28T06:15:07.025Z,75.98
2023-03-28T06:17:37.802Z,74.03
2023-03-28T06:20:06.831Z,73.44
2023-03-28T06:22:33.829Z,72.65
2023-03-28T06:25:09.559Z,73.39
2023-03-28T06:27:37.620Z,73.61
2023-03-28T06:30:05.747Z,73.65
2023-03-28T06:32:39.744Z,72.47
2023-03-28T06:35:07.348Z,70.85
2023-03-28T06:37:34.130Z,69.04
2023-03-28T06:40:04.464Z,67.88
2023-03-28T06:42:31.385Z,66.81
2023-03-28T06:45:15.120Z,67.48
2023-03-28T06:47:49.730Z,65.77
2023-03-28T06:50:18.588Z,66.43
2023-03-28T06:53:08.289Z,67.22
2023-03-28T06:55:35.545Z,66.30
2023-03-28T06:58:04.429Z,66.41
2023-03-28T07:00:48.426Z,66.77
2023-03-28T07:03:34.122Z,66.28
2023-03-28T07:06:06.099Z,65.78
2023-03-28T07:08:33.281Z,66.85
2023-03-28T07:11:00.687Z,64.35
2023-03-28T07:13:28.514Z,64.97
2023-03-28T07:16:16.983Z,65.32
2023-03-28T07:18:44.440Z,65.26
2023-03-28T07:21:17.241Z,63.75
2023-03-28T07:23:45.027Z,63.63
2023-03-28T07:26:14.865Z,63.80
2023-03-28T07:28:44.710Z,64.07
2023-03-28T07:31:13.924Z,61.89
2023-03-28T07:33:40.971Z,62.47
2023-03-28T07:36:14.245Z,62.86
2023-03-28T07:38:43.206Z,62.84
2023-03-28T07:41:10.001Z,61.68
2023-03-28T07:43:39.843Z,61.92
2023-03-28T07:46:08.649Z,61.56
2023-03-28T07:48:37.749Z,61.43
2023-03-28T07:51:06.615Z,60.56
2023-03-28T07:53:34.531Z,61.01
2023-03-28T07:56:01.477Z,60.60
2023-03-28T07:58:50.429Z,61.24
2023-03-28T08:01:18.933Z,60.58
2023-03-28T08:03:49.143Z,60.91
2023-03-28T08:06:31.133Z,60.02
2023-03-28T08:09:02.838Z,57.96
2023-03-28T08:11:42.209Z,58.57
2023-03-28T08:14:30.457Z,57.13
2023-03-28T08:16:57.630Z,58.29
2023-03-28T08:19:24.463Z,59.48
2023-03-28T08:22:25.111Z,58.24
2023-03-28T08:25:10.080Z,58.86
2023-03-28T08:27:39.144Z,57.16
2023-03-28T08:30:11.677Z,58.39
2023-03-28T08:32:51.357Z,58.92
2023-03-28T08:35:18.752Z,59.75
2023-03-28T08:37:49.046Z,60.47
2023-03-28T08:40:18.150Z,60.39
2023-03-28T08:43:13.452Z,60.23
2023-03-28T08:45:51.111Z,61.45
2023-03-28T08:48:20.784Z,60.28
2023-03-28T08:51:00.713Z,62.16
2023-03-28T08:53:34.643Z,59.64
2023-03-28T08:56:05.244Z,59.96
2023-03-28T08:58:47.821Z,58.92
2023-03-28T09:01:16.671Z,60.39
2023-03-28T09:03:43.738Z,63.07
2023-03-28T09:06:28.353Z,63.31
2023-03-28T09:09:01.865Z,63.52
2023-03-28T09:11:52.136Z,58.62
2023-03-28T09:14:37.615Z,62.53
2023-03-28T09:17:11.389Z,62.92
2023-03-28T09:20:13.847Z,64.19
2023-03-28T09:23:13.202Z,64.58
2023-03-28T09:26:18.494Z,63.57
2023-03-28T09:29:11.531Z,62.73
2023-03-28T09:31:46.591Z,61.92
2023-03-28T09:34:43.892Z,63.90
2023-03-28T09:37:35.468Z,68.33
2023-03-28T09:40:24.598Z,69.87
2023-03-28T09:43:41.621Z,76.02
2023-03-28T09:46:34.739Z,73.91
2023-03-28T09:49:23.921Z,76.62
2023-03-28T09:52:11.208Z,75.89
2023-03-28T09:54:41.811Z,75.86
2023-03-28T09:57:08.745Z,75.22
2023-03-28T09:59:47.551Z,77.29
2023-03-28T10:02:30.168Z,80.31
2023-03-28T10:05:01.867Z,76.74
2023-03-28T10:07:43.926Z,77.01
2023-03-28T10:10:35.584Z,76.92
2023-03-28T10:13:07.189Z,77.59
2023-03-28T10:15:45.616Z,71.64
2023-03-28T10:18:31.828Z,70.65
2023-03-28T10:21:26.814Z,69.68
2023-03-28T10:24:07.986Z,70.08
2023-03-28T10:26:36.377Z,67.12
2023-03-28T10:29:07.557Z,65.62
2023-03-28T10:31:39.060Z,66.66
2023-03-28T10:34:40.109Z,70.86
2023-03-28T10:37:32.794Z,73.46
2023-03-28T10:40:20.468Z,77.75
2023-03-28T10:43:16.002Z,73.14
2023-03-28T10:46:31.266Z,71.01
2023-03-28T10:49:19.731Z,71.62
2023-03-28T10:51:58.210Z,70.94
2023-03-28T10:54:34.013Z,70.80
2023-03-28T10:57:27.240Z,70.57
2023-03-28T11:00:03.876Z,68.76
2023-03-28T11:03:04.892Z,68.56
2023-03-28T11:06:08.184Z,65.09
2023-03-28T11:08:46.109Z,64.53
2023-03-28T11:11:44.721Z,66.87
2023-03-28T11:14:37.033Z,69.58
2023-03-28T11:17:27.352Z,64.50
2023-03-28T11:20:10.848Z,66.16
2023-03-28T11:23:09.405Z,62.09
2023-03-28T11:26:03.035Z,62.88
2023-03-28T11:29:16.827Z,61.26
2023-03-28T11:32:05.303Z,60.52
2023-03-28T11:34:37.694Z,59.66
2023-03-28T11:37:45.364Z,59.86
2023-03-28T11:40:23.292Z,59.72
2023-03-28T11:43:01.014Z,56.34
2023-03-28T11:45:49.454Z,49.71
2023-03-28T11:48:21.739Z,50.29
2023-03-28T11:51:04.023Z,48.28
2023-03-28T11:53:47.514Z,48.32
2023-03-28T11:56:27.136Z,47.18
2023-03-28T11:59:14.572Z,43.03
2023-03-28T12:01:47.360Z,44.13
2023-03-28T12:04:21.728Z,43.17
2023-03-28T12:07:13.268Z,42.45
2023-03-28T12:10:02.276Z,44.40
2023-03-28T12:12:39.584Z,41.89
2023-03-28T12:15:13.625Z,40.85
2023-03-28T12:18:07.874Z,41.42
2023-03-28T12:21:00.664Z,41.35
2023-03-28T12:23:42.792Z,42.03
2023-03-28T12:26:48.966Z,41.58
2023-03-28T12:30:07.408Z,51.41
2023-03-28T12:32:42.425Z,62.55
2023-03-28T12:35:39.813Z,63.85
2023-03-28T12:38:29.402Z,60.97
2023-03-28T12:41:16.204Z,59.73
2023-03-28T12:43:53.568Z,57.90
2023-03-28T12:46:33.388Z,54.84
2023-03-28T12:49:15.334Z,54.37
2023-03-28T12:51:45.258Z,56.26
2023-03-28T12:54:15.494Z,53.20
2023-03-28T12:57:00.320Z,50.18
2023-03-28T12:59:43.781Z,51.56
2023-03-28T13:02:57.078Z,55.03
2023-03-28T13:05:54.141Z,62.48
2023-03-28T13:08:48.984Z,64.64
2023-03-28T13:11:36.846Z,65.63
2023-03-28T13:14:24.335Z,65.43
2023-03-28T13:17:21.890Z,61.94
2023-03-28T13:20:01.982Z,61.76
2023-03-28T13:22:33.019Z,58.93
2023-03-28T13:25:32.629Z,56.03
2023-03-28T13:28:22.662Z,52.02
2023-03-28T13:31:22.723Z,52.47
2023-03-28T13:34:03.571Z,54.53
2023-03-28T13:36:34.738Z,56.43
2023-03-28T13:39:06.074Z,58.00
2023-03-28T13:41:36.356Z,59.63
2023-03-28T13:44:44.463Z,59.05
2023-03-28T13:47:23.330Z,60.09
2023-03-28T13:50:03.337Z,63.15
2023-03-28T13:52:30.582Z,62.09
2023-03-28T13:55:02.298Z,56.83
2023-03-28T13:57:29.641Z,54.98
2023-03-28T14:00:02.651Z,56.23
2023-03-28T14:02:47.139Z,55.48
2023-03-28T14:05:20.665Z,53.79
2023-03-28T14:07:47.973Z,54.23
2023-03-28T14:10:34.448Z,53.92
2023-03-28T14:13:15.930Z,54.57
2023-03-28T14:15:43.971Z,55.22
2023-03-28T14:18:22.503Z,55.02
2023-03-28T14:20:49.839Z,56.55
2023-03-28T14:23:37.318Z,56.51
2023-03-28T14:26:09.020Z,58.05
2023-03-28T14:28:40.175Z,56.62
2023-03-28T14:31:19.321Z,57.00
2023-03-28T14:33:47.558Z,57.67
2023-03-28T14:36:16.536Z,56.75
2023-03-28T14:38:44.273Z,56.29
2023-03-28T14:41:28.479Z,53.08
2023-03-28T14:43:57.986Z,50.08
2023-03-28T14:46:28.753Z,48.19
2023-03-28T14:49:00.600Z,48.12
2023-03-28T14:51:28.429Z,45.32
2023-03-28T14:53:57.804Z,45.78
2023-03-28T14:56:28.272Z,47.58
2023-03-28T14:59:00.745Z,46.86
2023-03-28T15:01:29.011Z,46.77
2023-03-28T15:04:00.973Z,47.11
2023-03-28T15:06:31.048Z,47.18
2023-03-28T15:09:02.187Z,47.48
2023-03-28T15:11:32.766Z,45.34
2023-03-28T15:14:04.276Z,44.32
2023-03-28T15:16:32.516Z,44.84
2023-03-28T15:19:09.640Z,44.85
2023-03-28T15:21:42.682Z,43.74
2023-03-28T15:24:16.891Z,43.48
2023-03-28T15:26:47.224Z,42.72
2023-03-28T15:29:19.125Z,42.31
2023-03-28T15:31:46.610Z,42.59
2023-03-28T15:34:26.387Z,43.16
2023-03-28T15:37:07.123Z,43.10
2023-03-28T15:39:37.150Z,43.14
2023-03-28T15:42:22.855Z,44.82
2023-03-28T15:44:58.923Z,45.63
2023-03-28T15:47:29.528Z,48.83
2023-03-28T15:50:03.763Z,52.55
2023-03-28T15:52:32.178Z,55.25
2023-03-28T15:55:00.397Z,57.41
2023-03-28T15:57:29.642Z,58.19
2023-03-28T15:59:58.520Z,58.78
2023-03-28T16:02:25.797Z,59.14
2023-03-28T16:05:08.235Z,62.02
2023-03-28T16:07:35.124Z,63.82
2023-03-28T16:10:03.068Z,66.21
2023-03-28T16:12:36.573Z,66.57
2023-03-28T16:15:33.121Z,67.76
2023-03-28T16:18:15.861Z,68.46
2023-03-28T16:20:52.545Z,69.23
2023-03-28T16:23:19.675Z,69.31
2023-03-28T16:25:48.977Z,70.10
2023-03-28T16:28:19.209Z,69.87
2023-03-28T16:30:52.801Z,70.92
2023-03-28T16:33:20.095Z,70.73
2023-03-28T16:35:46.976Z,70.44
2023-03-28T16:38:18.951Z,70.22
2023-03-28T16:40:48.786Z,70.70
2023-03-28T16:43:17.720Z,70.72
2023-03-28T16:45:50.809Z,70.88
2023-03-28T16:48:19.647Z,70.77
2023-03-28T16:50:56.098Z,69.44
2023-03-28T16:53:24.594Z,69.00
2023-03-28T16:55:53.275Z,68.21
2023-03-28T16:58:20.612Z,68.62
2023-03-28T17:00:50.536Z,68.37
2023-03-28T17:03:17.911Z,68.29
2023-03-28T17:05:45.320Z,68.53
2023-03-28T17:08:14.734Z,68.27
2023-03-28T17:10:44.543Z,68.49
2023-03-28T17:13:11.353Z,68.83
2023-03-28T17:15:40.772Z,68.47
2023-03-28T17:18:07.580Z,69.08
2023-03-28T17:20:41.023Z,68.69
2023-03-28T17:23:12.595Z,68.66
2023-03-28T17:25:52.160Z,68.26
2023-03-28T17:28:21.180Z,68.16
2023-03-28T17:30:48.005Z,68.16
2023-03-28T17:33:15.478Z,67.38
2023-03-28T17:35:42.316Z,67.76
2023-03-28T17:38:11.176Z,67.26
2023-03-28T17:40:43.606Z,67.33
2023-03-28T17:43:11.748Z,66.46
2023-03-28T17:45:38.814Z,67.02
2023-03-28T17:48:06.503Z,66.20
2023-03-28T17:50:34.043Z,66.68
2023-03-28T17:53:06.906Z,68.87
2023-03-28T17:55:36.876Z,68.24
2023-03-28T17:58:07.699Z,67.80
2023-03-28T18:00:34.469Z,67.50
2023-03-28T18:03:01.381Z,65.79
2023-03-28T18:05:58.238Z,66.73
2023-03-28T18:08:25.064Z,66.22
2023-03-28T18:10:51.796Z,66.46
2023-03-28T18:13:21.674Z,66.89
2023-03-28T18:15:52.481Z,66.51
2023-03-28T18:18:20.417Z,65.99
2023-03-28T18:20:49.917Z,65.82
2023-03-28T18:23:17.618Z,65.39
2023-03-28T18:25:45.982Z,65.21
2023-03-28T18:28:12.751Z,64.30
2023-03-28T18:30:40.792Z,64.26
2023-03-28T18:33:11.863Z,64.32
2023-03-28T18:35:40.748Z,63.52
2023-03-28T18:38:07.755Z,62.80
2023-03-28T18:40:34.641Z,62.62
2023-03-28T18:43:01.557Z,62.84
2023-03-28T18:45:28.398Z,62.62
2023-03-28T18:47:55.938Z,62.21
2023-03-28T18:50:22.901Z,62.35
2023-03-28T18:52:49.560Z,62.35
2023-03-28T18:55:17.772Z,62.38
2023-03-28T18:57:44.868Z,61.58
2023-03-28T19:00:18.574Z,61.42
2023-03-28T19:02:51.418Z,60.80
2023-03-28T19:05:18.620Z,60.34
2023-03-28T19:07:45.738Z,61.00
2023-03-28T19:10:13.700Z,59.74
2023-03-28T19:12:42.308Z,60.20
2023-03-28T19:15:12.986Z,60.23
2023-03-28T19:17:40.467Z,60.23
2023-03-28T19:20:12.315Z,59.92
2023-03-28T19:22:42.743Z,60.11
2023-03-28T19:25:10.225Z,60.87
2023-03-28T19:27:37.809Z,60.96
2023-03-28T19:30:05.660Z,61.04
2023-03-28T19:32:35.504Z,61.45
2023-03-28T19:35:02.608Z,62.11
2023-03-28T19:37:29.361Z,62.08
2023-03-28T19:39:59.244Z,62.43
2023-03-28T19:42:26.253Z,62.74
2023-03-28T19:44:54.236Z,63.02
2023-03-28T19:47:21.216Z,62.88
2023-03-28T19:49:49.839Z,63.37
2023-03-28T19:52:16.550Z,63.04
2023-03-28T19:54:44.674Z,64.12
2023-03-28T19:57:13.806Z,63.94
2023-03-28T19:59:40.872Z,64.30
2023-03-28T20:02:07.877Z,64.43
2023-03-28T20:04:34.726Z,64.62
2023-03-28T20:07:01.442Z,64.47
2023-03-28T20:09:28.339Z,64.35
2023-03-28T20:11:55.280Z,63.93
2023-03-28T20:14:26.258Z,63.99
2023-03-28T20:16:53.547Z,63.68
2023-03-28T20:19:20.417Z,63.77
2023-03-28T20:21:47.372Z,63.75
2023-03-28T20:24:22.408Z,64.40
2023-03-28T20:26:49.192Z,64.31
2023-03-28T20:29:17.927Z,64.13
2023-03-28T20:31:44.743Z,63.78
2023-03-28T20:34:11.659Z,64.00
2023-03-28T20:36:42.996Z,64.19
2023-03-28T20:39:09.727Z,64.12
2023-03-28T20:41:37.792Z,64.15
2023-03-28T20:44:04.563Z,63.74
2023-03-28T20:46:32.816Z,64.25
2023-03-28T20:49:04.036Z,64.20
2023-03-28T20:51:33.413Z,63.97
2023-03-28T20:54:01.744Z,63.93
2023-03-28T20:56:30.276Z,63.86
2023-03-28T20:59:01.177Z,64.30
2023-03-28T21:01:29.925Z,64.04
2023-03-28T21:04:00.260Z,64.46
2023-03-28T21:06:34.700Z,64.27
2023-03-28T21:09:07.283Z,64.49
2023-03-28T21:11:36.761Z,64.10
2023-03-28T21:14:05.169Z,64.55
2023-03-28T21:16:32.926Z,63.97
2023-03-28T21:19:10.719Z,63.89
2023-03-28T21:21:38.252Z,64.02
2023-03-28T21:24:07.525Z,63.84
2023-03-28T21:26:36.895Z,64.49
2023-03-28T21:29:04.856Z,63.92
2023-03-28T21:31:32.878Z,64.05
2023-03-28T21:33:59.920Z,64.40
2023-03-28T21:36:28.489Z,64.44
2023-03-28T21:38:56.202Z,64.67
2023-03-28T21:41:23.578Z,65.03
2023-03-28T21:43:50.657Z,65.37
2023-03-28T21:46:18.779Z,65.47
2023-03-28T21:48:48.513Z,65.56
2023-03-28T21:51:16.691Z,66.34
2023-03-28T21:53:43.517Z,66.96
2023-03-28T21:56:11.793Z,67.30
2023-03-28T21:58:41.456Z,67.87
2023-03-28T22:01:08.498Z,68.78
2023-03-28T22:03:37.099Z,68.04
2023-03-28T22:06:04.638Z,68.85
2023-03-28T22:08:31.584Z,69.38
2023-03-28T22:11:04.430Z,69.99
2023-03-28T22:13:34.511Z,70.21
2023-03-28T22:16:01.978Z,70.32
2023-03-28T22:18:30.788Z,70.91
2023-03-28T22:20:57.804Z,70.88
2023-03-28T22:23:25.298Z,71.49
2023-03-28T22:25:56.672Z,71.70
2023-03-28T22:28:26.768Z,72.05
2023-03-28T22:30:54.535Z,72.09
2023-03-28T22:33:25.684Z,72.52
2023-03-28T22:35:54.888Z,72.81
2023-03-28T22:38:21.544Z,73.54
2023-03-28T22:40:48.619Z,73.79
2023-03-28T22:43:16.149Z,73.89
2023-03-28T22:45:43.064Z,74.36
2023-03-28T22:48:16.225Z,75.42
2023-03-28T22:50:44.535Z,75.54
2023-03-28T22:53:12.545Z,75.70
2023-03-28T22:55:45.437Z,75.71
2023-03-28T22:58:15.073Z,76.16
2023-03-28T23:00:43.883Z,77.16
2023-03-28T23:03:10.626Z,76.99
2023-03-28T23:05:37.754Z,77.51
2023-03-28T23:08:05.943Z,78.95
2023-03-28T23:10:33.426Z,79.37
2023-03-28T23:13:00.599Z,79.76
2023-03-28T23:15:27.986Z,79.76
2023-03-28T23:17:54.835Z,79.28
2023-03-28T23:20:21.552Z,79.74
2023-03-28T23:22:48.836Z,80.14
2023-03-28T23:25:18.681Z,81.08
2023-03-28T23:27:46.534Z,81.36
2023-03-28T23:30:17.691Z,80.80
2023-03-28T23:32:44.637Z,81.07
2023-03-28T23:35:14.362Z,82.29
2023-03-28T23:37:41.729Z,83.14
2023-03-28T23:40:14.878Z,83.61
2023-03-28T23:42:44.495Z,84.35
2023-03-28T23:45:13.213Z,84.72
2023-03-28T23:47:39.923Z,85.19
2023-03-28T23:50:10.343Z,85.44
2023-03-28T23:52:38.461Z,85.59
2023-03-28T23:55:10.261Z,86.44
2023-03-28T23:57:37.301Z,87.36
